WetterOnline ( https://www.wetteronline.de )

Wetter aktuell Bösdorf

Aktuelles Wetter: Dörnick (28m)

6-stündlich | Neueste Meldungen
Ortszeit Temperatur Wetter
Fr, 01.07. 2:00 19.9° C wolkig
Do, 30.06. 20:00 23.2° C wolkenlos
Do, 30.06. 14:00 24.8° C leicht bewölkt
Do, 30.06. 8:00 18.9° C wolkenlos
Do, 30.06. 2:00 15.9° C wolkenlos
Mi, 29.06. 20:00 22.4° C wolkenlos
Mi, 29.06. 14:00 24.9° C wolkig
Mi, 29.06. 8:00 18.8° C wolkig
Ortszeit Temperatur Wetter
Fr, 01.07. 4:00 19.8° C leichter Regen
Fr, 01.07. 3:50 19.8° C leichter Regen
Fr, 01.07. 3:40 19.6° C bedeckt
Fr, 01.07. 3:30 19.9° C leichter Regen
Fr, 01.07. 3:20 19.9° C leichter Regen
Fr, 01.07. 3:10 19.9° C bedeckt
Fr, 01.07. 3:00 19.9° C wolkig
Fr, 01.07. 2:30 19.9° C wolkig
Fr, 01.07. 2:00 19.9° C wolkig
Fr, 01.07. 1:30 20.2° C leicht bewölkt
Fr, 01.07. 1:00 20.3° C wolkenlos
Ortszeit Relative Feuchte Sichtweite
Fr, 01.07. 2:00 87% 30 km
Do, 30.06. 20:00 63% >70 km
Do, 30.06. 14:00 52% 65 km
Do, 30.06. 8:00 79% 45 km
Do, 30.06. 2:00 91% 45 km
Mi, 29.06. 20:00 58% 55 km
Mi, 29.06. 14:00 51% >70 km
Mi, 29.06. 8:00 68% 50 km
Ortszeit Relative Feuchte Sichtweite
Fr, 01.07. 4:00 87% 28 km
Fr, 01.07. 3:50 87% -
Fr, 01.07. 3:40 89% -
Fr, 01.07. 3:30 88% 17 km
Fr, 01.07. 3:20 88% -
Fr, 01.07. 3:10 87% -
Fr, 01.07. 3:00 87% 30 km
Fr, 01.07. 2:30 87% 29 km
Fr, 01.07. 2:00 87% 30 km
Fr, 01.07. 1:30 85% 30 km
Fr, 01.07. 1:00 85% 30 km
Ortszeit Niederschlagsmenge Niederschlagsart
Fr, 01.07. 2:00 0.0 l/m2 in 6 Std. -
Do, 30.06. 20:00 0.0 l/m2 in 12 Std. -
Do, 30.06. 14:00 0.0 l/m2 in 6 Std. -
Do, 30.06. 8:00 0.0 l/m2 in 12 Std. -
Do, 30.06. 2:00 0.0 l/m2 in 6 Std. -
Mi, 29.06. 20:00 0.0 l/m2 in 12 Std. -
Mi, 29.06. 14:00 0.0 l/m2 in 6 Std. -
Mi, 29.06. 8:00 0.0 l/m2 in 12 Std. -
Ortszeit Niederschlagsmenge Niederschlagsart
Fr, 01.07. 4:00 0.1 l/m2 in 1 Std. Regen
Fr, 01.07. 3:50 keine Meldung -
Fr, 01.07. 3:40 keine Meldung -
Fr, 01.07. 3:30 0.1 l/m2 in 1 Std. -
Fr, 01.07. 3:20 keine Meldung -
Fr, 01.07. 3:10 keine Meldung -
Fr, 01.07. 3:00 0.0 l/m2 in 1 Std. -
Fr, 01.07. 2:30 0.0 l/m2 in 1 Std. -
Fr, 01.07. 2:00 0.0 l/m2 in 1 Std. -
Fr, 01.07. 1:30 0.0 l/m2 in 1 Std. -
Fr, 01.07. 1:00 0.0 l/m2 in 1 Std. -
Ortszeit Stärke Spitze Richtung
km/h Bft. km/h Grad Sektor
Fr, 01.07. 2:00 11 2 25 120° SO
Do, 30.06. 20:00 11 2 25 60° NO
Do, 30.06. 14:00 11 2 29 70° O
Do, 30.06. 8:00 13 3 26 90° O
Do, 30.06. 2:00 4 1 22 80° O
Mi, 29.06. 20:00 13 3 31 80° O
Mi, 29.06. 14:00 13 3 26 100° O
Mi, 29.06. 8:00 7 2 18 110° O
Ortszeit Stärke Spitze Richtung
km/h Bft. km/h Grad Sektor
Fr, 01.07. 4:00 9 2 30 140° SO
Fr, 01.07. 3:50 9 2 - 140° SO
Fr, 01.07. 3:40 7 2 - 130° SO
Fr, 01.07. 3:30 7 2 29 150° SO
Fr, 01.07. 3:20 7 2 - 150° SO
Fr, 01.07. 3:10 7 2 - 170° S
Fr, 01.07. 3:00 9 2 19 130° SO
Fr, 01.07. 2:30 9 2 17 120° SO
Fr, 01.07. 2:00 11 2 22 120° SO
Fr, 01.07. 1:30 9 2 20 110° O
Fr, 01.07. 1:00 9 2 20 110° O
Ortszeit Untergrenze Bedeckung Gattung
total tief tief mittel hoch
Fr, 01.07. 2:00 8700 m 7/8 0/8 - - -
Do, 30.06. 20:00 - 0/8 0/8 - - -
Do, 30.06. 14:00 9000 m 7/8 0/8 - - -
Do, 30.06. 8:00 - 0/8 0/8 - - -
Do, 30.06. 2:00 - 0/8 0/8 - - -
Mi, 29.06. 20:00 - 0/8 0/8 - - -
Mi, 29.06. 14:00 5700 m 8/8 8/8 - - -
Mi, 29.06. 8:00 7500 m 8/8 0/8 - - -
Ortszeit Bedeckungsgrad in Achtel und Wolkenuntergrenze
Fr, 01.07. 4:00 1(2100m) 8(4800m) 8(6600m)
Fr, 01.07. 3:50 1(2100m) 8(4800m) 8(6600m)
Fr, 01.07. 3:40 8
Fr, 01.07. 3:30 1(390m) 8(3600m) 8(4500m)
Fr, 01.07. 3:20 1(390m) 8(3600m) 8(4500m)
Fr, 01.07. 3:10 8
Fr, 01.07. 3:00 2(1500m) 3(3000m) 8(7800m)
Fr, 01.07. 2:30 5(8400m) 8(9000m) 8(10500m)
Fr, 01.07. 2:00 4(8700m) 7(9000m) 7(9000m)
Fr, 01.07. 1:30 2(9000m) 3(10500m)
Fr, 01.07. 1:00 keine Wolken
Ortszeit Luftdruck NN (hPa) Tendenz (hPa in 3 Std.)
Fr, 01.07. 2:00 1011 - 0,4
Do, 30.06. 20:00 1012 - 1,0
Do, 30.06. 14:00 1013 - 1,3
Do, 30.06. 8:00 1015 - 0,6
Do, 30.06. 2:00 1016 - 0,7
Mi, 29.06. 20:00 1015 - 0,9
Mi, 29.06. 14:00 1017 - 1,0
Mi, 29.06. 8:00 1019 - 0,3
Ortszeit Luftdruck NN (hPa) Tendenz (hPa in 3 Std.)
Fr, 01.07. 4:00 1011 + 0,2
Fr, 01.07. 3:50 1011 keine Meldung
Fr, 01.07. 3:40 1011 keine Meldung
Fr, 01.07. 3:30 1011 + 0,2
Fr, 01.07. 3:20 1011 keine Meldung
Fr, 01.07. 3:10 1012 keine Meldung
Fr, 01.07. 3:00 1011 - 0,3
Fr, 01.07. 2:30 1011 - 0,2
Fr, 01.07. 2:00 1011 - 0,4
Fr, 01.07. 1:30 1011 - 0,3
Fr, 01.07. 1:00 1011 - 0,2
Ortszeit Schneehöhe (cm)
Fr, 01.07. 2:00 0
Do, 30.06. 20:00 0
Do, 30.06. 14:00 0
Do, 30.06. 8:00 0
Do, 30.06. 2:00 0
Mi, 29.06. 20:00 0
Mi, 29.06. 14:00 0
Mi, 29.06. 8:00 0
Ortszeit Schneehöhe (cm)
Fr, 01.07. 4:00 0
Fr, 01.07. 3:50 0
Fr, 01.07. 3:40 0
Fr, 01.07. 3:30 0
Fr, 01.07. 3:20 0
Fr, 01.07. 3:10 0
Fr, 01.07. 3:00 0
Fr, 01.07. 2:30 0
Fr, 01.07. 2:00 0
Fr, 01.07. 1:30 0
Fr, 01.07. 1:00 0
Link zu dieser Seite / Seite empfehlen

Das Wetter in ...